MSC Regina — 3FGF9 — position and weather

sailwx.info

Track history (hours):
 
Tides and Currents Weather Stations Pressure Air Temp Water Temp Dewpoint Dewpoint Depression Visibility Wind Speed Wind Dir Waves Ship Positions

MSC Regina

Last reported at 2016-Sep-28 21:29 UTC. Time now 2016-Sep-29 20:29 UTC.
Position N 45°35' W 073°31'.

Length 259 m; draft 10.3 m.

Type: Ship (hazmat cat A). MMSI: 357331980.

Date/timePositionNaut miles runAvg speedWind from/ knotsBaromVisibWave heightAir tempDewpointWater temp
2016-Sep-28 21:29N 45°35' W 073°31'0 0.0
2016-Sep-28 19:29N 45°35' W 073°31'0 0.0
2016-Sep-28 16:29N 45°35' W 073°31'0 0.0
2016-Sep-28 15:29N 45°35' W 073°31'0 0.0
2016-Sep-28 12:26N 45°35' W 073°31'0 0.0
2016-Sep-28 08:32N 45°35' W 073°31'0 0.0
2016-Sep-28 03:29N 45°35' W 073°31'0 0.0
2016-Sep-28 02:29N 45°35' W 073°31'0 0.0
2016-Sep-28 01:32N 45°35' W 073°31'0 0.0
2016-Sep-27 23:32N 45°35' W 073°31'0 0.0
2016-Sep-27 19:32N 45°35' W 073°31'0 0.0
2016-Sep-27 14:23N 45°35' W 073°31'0 0.0
2016-Sep-27 13:29N 45°35' W 073°31'0 0.0
2016-Sep-27 10:32N 45°35' W 073°31'18 1.8
2016-Sep-27 00:33N 45°50' W 073°17'  
2016-Sep-20 08:22N 38°19' W 011°02'1917.2
2016-Sep-20 07:17N 38°15' W 010°39'1317.8
2016-Sep-20 06:34N 38°12' W 010°23'7418.6
2016-Sep-20 02:33N 37°52' W 008°52'4 1.4
2016-Sep-19 23:32N 37°56' W 008°51'0 0.0
2016-Sep-19 19:32N 37°56' W 008°51'0 0.0
2016-Sep-19 18:32N 37°56' W 008°51'0 0.0
2016-Sep-19 16:29N 37°56' W 008°51'0 0.0
2016-Sep-19 14:32N 37°56' W 008°51'0 0.0
2016-Sep-19 13:32N 37°56' W 008°51'0 0.0
2016-Sep-19 12:32N 37°56' W 008°51'0 0.0
2016-Sep-19 11:32N 37°56' W 008°51'0 0.0
2016-Sep-19 09:33N 37°56' W 008°51'8 3.9
2016-Sep-19 07:34N 37°49' W 008°55'2 2.3
2016-Sep-19 06:33N 37°47' W 008°55'28 9.3
2016-Sep-19 03:34N 37°21' W 009°09'1110.5
2016-Sep-19 02:33N 37°12' W 009°15'19 9.7
2016-Sep-19 00:33N 36°53' W 009°18'  
Track history (hours):
 
Tides and Currents Weather Stations Pressure Air Temp Water Temp Dewpoint Dewpoint Depression Visibility Wind Speed Wind Dir Waves Ship Positions

MSC Regina

Last reported at 2016-Sep-28 21:29 UTC. Time now 2016-Sep-29 20:29 UTC.
Position N 45°35' W 073°31'.

Length 259 m; draft 10.3 m.

Type: Ship (hazmat cat A). MMSI: 357331980.

Date/timePositionNaut miles runAvg speedWind from/ knotsBaromVisibWave heightAir tempDewpointWater temp
2016-Sep-28 21:29N 45°35' W 073°31'0 0.0
2016-Sep-28 19:29N 45°35' W 073°31'0 0.0
2016-Sep-28 16:29N 45°35' W 073°31'0 0.0
2016-Sep-28 15:29N 45°35' W 073°31'0 0.0
2016-Sep-28 12:26N 45°35' W 073°31'0 0.0
2016-Sep-28 08:32N 45°35' W 073°31'0 0.0
2016-Sep-28 03:29N 45°35' W 073°31'0 0.0
2016-Sep-28 02:29N 45°35' W 073°31'0 0.0
2016-Sep-28 01:32N 45°35' W 073°31'0 0.0
2016-Sep-27 23:32N 45°35' W 073°31'0 0.0
2016-Sep-27 19:32N 45°35' W 073°31'0 0.0
2016-Sep-27 14:23N 45°35' W 073°31'0 0.0
2016-Sep-27 13:29N 45°35' W 073°31'0 0.0
2016-Sep-27 10:32N 45°35' W 073°31'18 1.8
2016-Sep-27 00:33N 45°50' W 073°17'  
2016-Sep-20 08:22N 38°19' W 011°02'1917.2
2016-Sep-20 07:17N 38°15' W 010°39'1317.8
2016-Sep-20 06:34N 38°12' W 010°23'7418.6
2016-Sep-20 02:33N 37°52' W 008°52'4 1.4
2016-Sep-19 23:32N 37°56' W 008°51'0 0.0
2016-Sep-19 19:32N 37°56' W 008°51'0 0.0
2016-Sep-19 18:32N 37°56' W 008°51'0 0.0
2016-Sep-19 16:29N 37°56' W 008°51'0 0.0
2016-Sep-19 14:32N 37°56' W 008°51'0 0.0
2016-Sep-19 13:32N 37°56' W 008°51'0 0.0
2016-Sep-19 12:32N 37°56' W 008°51'0 0.0
2016-Sep-19 11:32N 37°56' W 008°51'0 0.0
2016-Sep-19 09:33N 37°56' W 008°51'8 3.9
2016-Sep-19 07:34N 37°49' W 008°55'2 2.3
2016-Sep-19 06:33N 37°47' W 008°55'28 9.3
2016-Sep-19 03:34N 37°21' W 009°09'1110.5
2016-Sep-19 02:33N 37°12' W 009°15'19 9.7
2016-Sep-19 00:33N 36°53' W 009°18'  

Dump ship's entire track history